createdAt,value
2022-10-24T00:00:44.745Z,11.07
2022-10-24T00:02:17.631Z,13.20
2022-10-24T00:03:49.886Z,12.40
2022-10-24T00:05:22.609Z,14.30
2022-10-24T00:06:54.344Z,12.50
2022-10-24T00:08:27.122Z,9.67
2022-10-24T00:09:59.831Z,10.97
2022-10-24T00:11:32.582Z,8.40
2022-10-24T00:13:04.484Z,8.87
2022-10-24T00:14:38.294Z,10.90
2022-10-24T00:16:13.545Z,8.97
2022-10-24T00:17:46.226Z,9.63
2022-10-24T00:19:19.061Z,7.40
2022-10-24T00:20:50.790Z,9.50
2022-10-24T00:22:23.506Z,9.40
2022-10-24T00:23:56.230Z,10.23
2022-10-24T00:25:29.021Z,9.03
2022-10-24T00:27:01.737Z,11.53
2022-10-24T00:28:36.429Z,9.77
2022-10-24T00:30:10.249Z,9.53
2022-10-24T00:31:44.431Z,13.07
2022-10-24T00:33:17.157Z,9.73
2022-10-24T00:34:49.957Z,11.13
2022-10-24T00:36:24.569Z,11.03
2022-10-24T00:37:57.329Z,9.17
2022-10-24T00:39:30.031Z,9.63
2022-10-24T00:41:01.800Z,13.67
2022-10-24T00:42:34.587Z,10.80
2022-10-24T00:44:23.509Z,9.93
2022-10-24T00:45:57.561Z,14.63
2022-10-24T00:47:31.669Z,11.77
2022-10-24T00:49:03.507Z,11.30
2022-10-24T00:50:36.309Z,8.77
2022-10-24T00:52:10.866Z,10.73
2022-10-24T00:53:46.630Z,10.70
2022-10-24T00:55:18.785Z,10.53
2022-10-24T00:57:00.195Z,13.80
2022-10-24T00:58:34.753Z,11.10
2022-10-24T01:00:10.448Z,12.97
2022-10-24T01:01:44.350Z,11.10
2022-10-24T01:03:19.065Z,11.30
2022-10-24T01:04:54.092Z,11.60
2022-10-24T01:06:41.421Z,10.60
2022-10-24T01:08:28.071Z,10.73
2022-10-24T01:10:16.050Z,13.67
2022-10-24T01:12:04.032Z,11.63
2022-10-24T01:13:46.171Z,9.07
2022-10-24T01:15:23.701Z,11.03
2022-10-24T01:17:05.870Z,11.47
2022-10-24T01:18:45.301Z,13.03
2022-10-24T01:20:40.775Z,13.37
2022-10-24T01:22:20.261Z,13.60
2022-10-24T01:24:30.024Z,10.97
2022-10-24T01:26:25.439Z,11.33
2022-10-24T01:28:02.759Z,12.37
2022-10-24T01:29:47.110Z,14.00
2022-10-24T01:31:28.328Z,10.93
2022-10-24T01:33:05.266Z,12.90
2022-10-24T01:34:42.258Z,10.13
2022-10-24T01:36:17.927Z,12.43
2022-10-24T01:37:57.580Z,12.50
2022-10-24T01:39:35.960Z,9.33
2022-10-24T01:41:12.166Z,9.43
2022-10-24T01:42:47.922Z,11.00
2022-10-24T01:44:26.078Z,11.17
2022-10-24T01:46:04.081Z,10.57
2022-10-24T01:47:40.273Z,9.50
2022-10-24T01:49:17.716Z,11.20
2022-10-24T01:50:52.560Z,9.57
2022-10-24T01:52:28.885Z,13.40
2022-10-24T01:54:04.138Z,10.27
2022-10-24T01:55:38.711Z,9.30
2022-10-24T01:57:10.725Z,10.33
2022-10-24T01:58:43.488Z,10.07
2022-10-24T02:00:19.177Z,12.43
2022-10-24T02:01:54.149Z,10.57
2022-10-24T02:03:32.473Z,12.53
2022-10-24T02:05:10.909Z,9.43
2022-10-24T02:06:46.001Z,11.13
2022-10-24T02:08:21.852Z,6.50
2022-10-24T02:09:58.973Z,12.90
2022-10-24T02:11:32.094Z,11.67
2022-10-24T02:13:09.717Z,9.27
2022-10-24T02:14:46.615Z,10.90
2022-10-24T02:16:21.264Z,8.53
2022-10-24T02:17:56.669Z,9.30
2022-10-24T02:19:30.114Z,9.33
2022-10-24T02:21:12.161Z,7.90
2022-10-24T02:22:51.061Z,10.17
2022-10-24T02:24:26.986Z,12.10
2022-10-24T02:26:02.258Z,10.07
2022-10-24T02:27:40.242Z,10.03
2022-10-24T02:29:19.517Z,11.03
2022-10-24T02:30:55.944Z,11.13
2022-10-24T02:32:31.905Z,10.73
2022-10-24T02:34:08.901Z,11.43
2022-10-24T02:35:43.124Z,13.33
2022-10-24T02:37:18.624Z,14.23
2022-10-24T02:38:53.416Z,11.00
2022-10-24T02:40:26.617Z,10.87
2022-10-24T02:42:00.767Z,10.50
2022-10-24T02:43:35.336Z,11.80
2022-10-24T02:45:10.813Z,11.07
2022-10-24T02:46:46.376Z,11.63
2022-10-24T02:48:24.376Z,11.87
2022-10-24T02:49:58.477Z,11.93
2022-10-24T02:51:33.767Z,15.20
2022-10-24T02:53:06.548Z,9.73
2022-10-24T02:54:39.285Z,13.97
2022-10-24T02:56:12.227Z,8.40
2022-10-24T02:57:44.024Z,11.40
2022-10-24T02:59:16.728Z,11.47
2022-10-24T03:00:49.535Z,10.93
2022-10-24T03:02:23.759Z,12.07
2022-10-24T03:03:56.471Z,13.40
2022-10-24T03:05:29.617Z,9.37
2022-10-24T03:07:02.339Z,11.67
2022-10-24T03:08:35.075Z,13.10
2022-10-24T03:10:08.216Z,14.40
2022-10-24T03:11:41.270Z,11.53
2022-10-24T03:13:14.000Z,11.47
2022-10-24T03:14:46.719Z,11.70
2022-10-24T03:16:19.423Z,12.13
2022-10-24T03:17:52.143Z,12.47
2022-10-24T03:19:24.844Z,14.33
2022-10-24T03:20:58.888Z,15.83
2022-10-24T03:22:31.014Z,12.17
2022-10-24T03:24:03.973Z,10.53
2022-10-24T03:25:36.730Z,11.07
2022-10-24T03:27:08.543Z,8.50
2022-10-24T03:28:41.359Z,12.07
2022-10-24T03:30:14.356Z,11.70
2022-10-24T03:31:47.430Z,13.87
2022-10-24T03:33:20.380Z,12.90
2022-10-24T03:34:53.115Z,11.50
2022-10-24T03:36:27.513Z,14.03
2022-10-24T03:38:00.237Z,11.40
2022-10-24T03:39:32.945Z,11.60
2022-10-24T03:41:06.137Z,11.83
2022-10-24T03:42:39.276Z,12.63
2022-10-24T03:44:12.005Z,13.67
2022-10-24T03:45:44.776Z,18.43
2022-10-24T03:47:17.517Z,11.10
2022-10-24T03:48:50.275Z,15.57
2022-10-24T03:50:22.157Z,10.43
2022-10-24T03:51:56.348Z,11.47
2022-10-24T03:53:29.141Z,9.77
2022-10-24T03:55:00.981Z,10.03
2022-10-24T03:56:33.708Z,14.37
2022-10-24T03:58:06.411Z,10.37
2022-10-24T03:59:39.152Z,12.43
2022-10-24T04:01:17.203Z,9.80
2022-10-24T04:02:51.339Z,12.83
2022-10-24T04:04:24.051Z,10.87
2022-10-24T04:05:56.853Z,14.43
2022-10-24T04:07:30.904Z,12.77
2022-10-24T04:09:03.910Z,14.00
2022-10-24T04:10:36.621Z,16.10
2022-10-24T04:12:09.463Z,11.00
2022-10-24T04:13:42.182Z,13.97
2022-10-24T04:15:14.883Z,14.90
2022-10-24T04:16:47.625Z,15.10
2022-10-24T04:18:20.368Z,12.67
2022-10-24T04:19:53.138Z,13.27
2022-10-24T04:21:25.864Z,13.50
2022-10-24T04:23:02.290Z,16.47
2022-10-24T04:24:38.056Z,16.03
2022-10-24T04:26:12.292Z,16.10
2022-10-24T04:27:45.505Z,14.20
2022-10-24T04:29:18.244Z,13.77
2022-10-24T04:30:56.192Z,14.33
2022-10-24T04:32:28.971Z,14.37
2022-10-24T04:34:01.776Z,13.73
2022-10-24T04:35:34.494Z,9.23
2022-10-24T04:37:07.431Z,10.07
2022-10-24T04:38:41.568Z,15.50
2022-10-24T04:40:14.338Z,10.80
2022-10-24T04:41:47.095Z,16.67
2022-10-24T04:43:21.149Z,12.87
2022-10-24T04:44:53.856Z,12.57
2022-10-24T04:46:26.649Z,11.80
2022-10-24T04:47:59.394Z,13.50
2022-10-24T04:49:32.166Z,11.27
2022-10-24T04:51:05.360Z,16.07
2022-10-24T04:52:38.117Z,13.57
2022-10-24T04:54:12.257Z,14.83
2022-10-24T04:55:45.709Z,12.70
2022-10-24T04:57:18.865Z,14.90
2022-10-24T04:58:51.572Z,10.80
2022-10-24T05:00:24.378Z,14.83
2022-10-24T05:01:57.184Z,12.97
2022-10-24T05:03:29.952Z,12.07
2022-10-24T05:05:02.696Z,13.33
2022-10-24T05:06:35.618Z,13.47
2022-10-24T05:08:08.404Z,12.70
2022-10-24T05:09:42.474Z,12.87
2022-10-24T05:11:15.193Z,15.50
2022-10-24T05:12:47.310Z,13.63
2022-10-24T05:14:20.270Z,13.37
2022-10-24T05:15:52.980Z,11.87
2022-10-24T05:17:25.750Z,11.17
2022-10-24T05:18:58.469Z,11.60
2022-10-24T05:20:31.737Z,15.40
2022-10-24T05:22:06.069Z,14.07
2022-10-24T05:23:41.496Z,15.47
2022-10-24T05:25:15.648Z,12.17
2022-10-24T05:26:48.389Z,12.03
2022-10-24T05:28:21.228Z,13.47
2022-10-24T05:29:54.675Z,17.63
2022-10-24T05:31:27.518Z,16.17
2022-10-24T05:33:00.308Z,17.70
2022-10-24T05:34:33.016Z,11.47
2022-10-24T05:36:06.601Z,15.70
2022-10-24T05:37:39.516Z,17.77
2022-10-24T05:39:12.227Z,14.47
2022-10-24T05:40:49.122Z,17.13
2022-10-24T05:42:21.911Z,16.30
2022-10-24T05:43:54.701Z,18.30
2022-10-24T05:45:27.558Z,13.27
2022-10-24T05:46:59.377Z,16.50
2022-10-24T05:48:32.074Z,15.17
2022-10-24T05:50:05.970Z,18.23
2022-10-24T05:51:38.694Z,20.67
2022-10-24T05:53:12.949Z,14.07
2022-10-24T05:54:55.239Z,18.40
2022-10-24T05:56:36.760Z,19.40
2022-10-24T05:58:12.613Z,15.50
2022-10-24T05:59:45.307Z,17.00
2022-10-24T06:01:18.520Z,13.10
2022-10-24T06:02:51.337Z,12.47
2022-10-24T06:04:24.156Z,16.57
2022-10-24T06:05:55.959Z,13.37
2022-10-24T06:07:28.712Z,15.30
2022-10-24T06:09:01.482Z,14.77
2022-10-24T06:10:34.361Z,11.53
2022-10-24T06:12:09.771Z,10.83
2022-10-24T06:13:43.234Z,13.03
2022-10-24T06:15:15.950Z,12.13
2022-10-24T06:16:48.665Z,17.53
2022-10-24T06:18:21.464Z,16.47
2022-10-24T06:19:54.298Z,13.13
2022-10-24T06:21:27.527Z,16.87
2022-10-24T06:23:00.274Z,14.73
2022-10-24T06:24:35.691Z,12.27
2022-10-24T06:26:10.999Z,16.47
2022-10-24T06:27:45.137Z,14.70
2022-10-24T06:29:17.858Z,12.77
2022-10-24T06:30:52.025Z,12.27
2022-10-24T06:32:24.789Z,13.50
2022-10-24T06:33:57.495Z,16.53
2022-10-24T06:35:30.309Z,16.07
2022-10-24T06:37:03.410Z,17.13
2022-10-24T06:38:36.539Z,11.33
2022-10-24T06:40:10.363Z,13.83
2022-10-24T06:41:43.076Z,17.97
2022-10-24T06:43:19.474Z,12.30
2022-10-24T06:44:52.273Z,18.30
2022-10-24T06:46:25.059Z,16.67
2022-10-24T06:47:57.774Z,9.80
2022-10-24T06:49:30.536Z,13.73
2022-10-24T06:51:03.634Z,9.27
2022-10-24T06:52:37.760Z,11.90
2022-10-24T06:54:11.138Z,10.37
2022-10-24T06:55:43.878Z,15.27
2022-10-24T06:57:18.035Z,9.73
2022-10-24T06:58:52.143Z,11.37
2022-10-24T07:00:25.016Z,7.73
2022-10-24T07:02:01.711Z,12.70
2022-10-24T07:03:38.385Z,8.00
2022-10-24T07:05:12.740Z,14.40
2022-10-24T07:06:45.972Z,15.93
2022-10-24T07:08:19.634Z,10.63
2022-10-24T07:09:54.078Z,9.83
2022-10-24T07:11:28.000Z,11.43
2022-10-24T07:13:00.718Z,17.93
2022-10-24T07:14:34.785Z,9.53
2022-10-24T07:16:08.377Z,14.93
2022-10-24T07:17:42.329Z,11.20
2022-10-24T07:19:15.066Z,9.17
2022-10-24T07:20:47.823Z,9.63
2022-10-24T07:22:20.679Z,9.90
2022-10-24T07:23:55.008Z,16.00
2022-10-24T07:25:27.735Z,12.57
2022-10-24T07:27:00.533Z,14.60
2022-10-24T07:28:34.283Z,11.53
2022-10-24T07:30:10.429Z,11.67
2022-10-24T07:31:43.157Z,13.57
2022-10-24T07:33:16.509Z,10.30
2022-10-24T07:34:49.238Z,12.50
2022-10-24T07:36:24.140Z,10.77
2022-10-24T07:37:56.898Z,12.37
2022-10-24T07:39:29.638Z,8.60
2022-10-24T07:41:04.472Z,11.90
2022-10-24T07:42:37.177Z,13.30
2022-10-24T07:44:11.123Z,14.67
2022-10-24T07:45:49.080Z,16.23
2022-10-24T07:47:24.675Z,16.07
2022-10-24T07:48:57.636Z,8.77
2022-10-24T07:50:30.364Z,13.90
2022-10-24T07:52:03.076Z,13.33
2022-10-24T07:53:36.286Z,12.50
2022-10-24T07:55:09.673Z,10.17
2022-10-24T07:56:42.476Z,10.47
2022-10-24T07:58:16.748Z,9.90
2022-10-24T07:59:49.497Z,11.80
2022-10-24T08:01:25.354Z,11.77
2022-10-24T08:02:58.504Z,10.90
2022-10-24T08:04:31.328Z,9.50
2022-10-24T08:06:06.782Z,12.63
2022-10-24T08:07:39.834Z,9.30
2022-10-24T08:09:12.658Z,10.67
2022-10-24T08:10:45.376Z,18.37
2022-10-24T08:12:19.022Z,9.83
2022-10-24T08:13:53.339Z,9.27
2022-10-24T08:15:27.763Z,10.83
2022-10-24T08:17:01.849Z,9.57
2022-10-24T08:18:38.673Z,11.50
2022-10-24T08:20:13.140Z,12.37
2022-10-24T08:21:45.880Z,13.23
2022-10-24T08:23:23.154Z,13.60
2022-10-24T08:24:57.466Z,13.30
2022-10-24T08:26:30.253Z,12.23
2022-10-24T08:28:05.317Z,16.37
2022-10-24T08:29:40.953Z,13.13
2022-10-24T08:31:15.691Z,12.43
2022-10-24T08:32:49.755Z,10.67
2022-10-24T08:34:23.322Z,11.27
2022-10-24T08:35:59.697Z,8.17
2022-10-24T08:37:32.483Z,10.77
2022-10-24T08:39:05.497Z,14.13
2022-10-24T08:40:38.230Z,11.40
2022-10-24T08:42:15.662Z,13.53
2022-10-24T08:43:48.507Z,13.23
2022-10-24T08:45:30.300Z,10.53
2022-10-24T08:47:08.158Z,13.83
2022-10-24T08:48:46.948Z,11.90
2022-10-24T08:50:25.052Z,10.87
2022-10-24T08:52:02.049Z,8.20
2022-10-24T08:53:35.126Z,12.80
2022-10-24T08:57:16.353Z,11.13
2022-10-24T08:58:51.794Z,13.27
2022-10-24T09:00:27.141Z,11.77
2022-10-24T09:02:04.231Z,13.60
2022-10-24T09:03:57.966Z,10.10
2022-10-24T09:05:35.926Z,8.67
2022-10-24T09:07:16.940Z,7.97
2022-10-24T09:08:53.800Z,14.57
2022-10-24T09:10:37.588Z,9.13
2022-10-24T09:12:13.869Z,11.27
2022-10-24T09:13:46.618Z,12.13
2022-10-24T09:15:31.898Z,9.90
2022-10-24T09:17:13.570Z,8.97
2022-10-24T09:18:49.362Z,11.37
2022-10-24T09:20:25.565Z,7.00
2022-10-24T09:22:01.520Z,10.07
2022-10-24T09:23:36.339Z,5.80
2022-10-24T09:25:13.617Z,10.07
2022-10-24T09:26:46.738Z,8.03
2022-10-24T09:28:20.614Z,7.47
2022-10-24T09:29:53.762Z,7.67
2022-10-24T09:31:28.314Z,7.67
2022-10-24T09:33:04.849Z,9.67
2022-10-24T09:34:37.569Z,9.90
2022-10-24T09:36:13.445Z,8.73
2022-10-24T09:37:49.678Z,7.93
2022-10-24T09:39:40.449Z,10.10
2022-10-24T09:41:19.816Z,8.63
2022-10-24T09:42:56.603Z,8.17
2022-10-24T09:44:35.428Z,9.13
2022-10-24T09:46:11.401Z,5.70
2022-10-24T09:47:44.824Z,9.13
2022-10-24T09:49:23.250Z,10.63
2022-10-24T09:50:56.817Z,8.10
2022-10-24T09:52:31.964Z,7.20
2022-10-24T09:54:26.152Z,10.13
2022-10-24T09:56:01.317Z,9.13
2022-10-24T09:57:39.953Z,9.77
2022-10-24T09:59:27.886Z,7.27
2022-10-24T10:01:04.805Z,7.63
2022-10-24T10:02:37.713Z,6.80
2022-10-24T10:04:18.029Z,10.17
2022-10-24T10:05:54.071Z,7.10
2022-10-24T10:07:28.375Z,7.77
2022-10-24T10:09:01.302Z,6.90
2022-10-24T10:10:37.680Z,9.03
2022-10-24T10:12:27.557Z,9.23
2022-10-24T10:14:02.516Z,8.27
2022-10-24T10:15:38.931Z,6.80
2022-10-24T10:17:22.768Z,6.40
2022-10-24T10:19:04.199Z,8.43
2022-10-24T10:20:40.733Z,5.83
2022-10-24T10:22:24.290Z,5.47
2022-10-24T10:23:59.360Z,6.63
2022-10-24T10:25:33.236Z,7.47
2022-10-24T10:27:27.233Z,8.63
2022-10-24T10:29:02.654Z,5.60
2022-10-24T10:30:35.596Z,5.63
2022-10-24T10:32:18.839Z,6.13
2022-10-24T10:34:16.070Z,3.50
2022-10-24T10:35:55.925Z,3.50
2022-10-24T10:37:32.223Z,5.50
2022-10-24T10:39:25.581Z,6.07
2022-10-24T10:41:04.219Z,4.53
2022-10-24T10:42:45.250Z,4.97
2022-10-24T10:44:36.812Z,4.23
2022-10-24T10:46:21.413Z,5.23
2022-10-24T10:48:04.611Z,3.30
2022-10-24T10:49:40.040Z,2.13
2022-10-24T10:51:24.948Z,4.50
2022-10-24T10:53:11.225Z,3.13
2022-10-24T10:54:59.885Z,6.43
2022-10-24T10:56:35.946Z,4.53
2022-10-24T10:58:24.729Z,6.43
2022-10-24T11:00:07.603Z,5.67
2022-10-24T11:01:48.591Z,3.43
2022-10-24T11:03:32.127Z,3.87
2022-10-24T11:05:19.853Z,5.10
2022-10-24T11:08:51.205Z,3.63
2022-10-24T11:10:28.027Z,6.50
2022-10-24T11:12:07.104Z,5.53
2022-10-24T11:13:47.033Z,4.40
2022-10-24T11:15:23.306Z,4.07
2022-10-24T11:16:59.760Z,4.60
2022-10-24T11:18:36.153Z,2.90
2022-10-24T11:20:17.166Z,5.03
2022-10-24T11:21:51.671Z,5.37
2022-10-24T11:23:29.896Z,4.63
2022-10-24T11:25:08.084Z,5.67
2022-10-24T11:26:44.305Z,6.17
2022-10-24T11:28:28.012Z,4.97
2022-10-24T11:30:09.853Z,4.57
2022-10-24T11:31:47.861Z,3.23
2022-10-24T11:33:24.908Z,4.03
2022-10-24T11:35:02.705Z,3.13
2022-10-24T11:36:42.789Z,3.63
2022-10-24T11:38:19.366Z,4.63
2022-10-24T11:39:58.006Z,5.97
2022-10-24T11:41:54.617Z,6.90
2022-10-24T11:43:31.707Z,1.73
2022-10-24T11:45:08.318Z,4.10
2022-10-24T11:46:42.561Z,3.47
2022-10-24T11:48:20.286Z,5.73
2022-10-24T11:49:59.242Z,3.47
2022-10-24T11:51:36.679Z,3.87
2022-10-24T11:53:22.956Z,3.73
2022-10-24T11:55:00.775Z,3.83
2022-10-24T11:56:41.435Z,3.77
2022-10-24T11:58:16.759Z,4.77
2022-10-24T11:59:52.686Z,5.03
2022-10-24T12:01:58.585Z,4.73
2022-10-24T12:04:05.350Z,4.23
2022-10-24T12:05:53.125Z,3.97
2022-10-24T12:07:51.389Z,3.37
2022-10-24T12:09:37.661Z,6.53
2022-10-24T12:11:29.649Z,3.27
2022-10-24T12:13:26.214Z,4.57
2022-10-24T12:15:26.233Z,7.10
2022-10-24T12:17:29.972Z,4.90
2022-10-24T12:19:05.734Z,2.83
2022-10-24T12:20:40.637Z,4.00
2022-10-24T12:22:21.794Z,5.53
2022-10-24T12:23:56.313Z,2.30
2022-10-24T12:25:30.864Z,4.13
2022-10-24T12:27:06.808Z,2.83
2022-10-24T12:28:40.476Z,5.00
2022-10-24T12:30:19.712Z,4.03
2022-10-24T12:31:53.308Z,4.80
2022-10-24T12:33:29.207Z,3.87
2022-10-24T12:37:08.234Z,4.77
2022-10-24T12:39:04.750Z,5.40
2022-10-24T12:40:52.683Z,4.13
2022-10-24T12:43:08.148Z,2.17
2022-10-24T12:44:50.401Z,2.80
2022-10-24T12:46:54.731Z,5.80
2022-10-24T12:48:32.791Z,3.33
2022-10-24T12:50:42.943Z,3.77
2022-10-24T12:52:49.308Z,4.67
2022-10-24T12:54:40.148Z,3.93
2022-10-24T12:56:20.607Z,4.27
2022-10-24T12:57:53.530Z,3.03
2022-10-24T12:59:29.320Z,4.07
2022-10-24T13:01:05.094Z,4.30
2022-10-24T13:02:58.108Z,4.93
2022-10-24T13:04:47.126Z,2.37
2022-10-24T13:06:26.067Z,2.57
2022-10-24T13:08:15.461Z,4.27
2022-10-24T13:09:58.589Z,1.97
2022-10-24T13:11:44.657Z,2.47
2022-10-24T13:13:38.909Z,4.63
2022-10-24T13:15:24.697Z,2.70
2022-10-24T13:17:06.681Z,5.30
2022-10-24T13:18:50.924Z,3.93
2022-10-24T13:20:27.360Z,4.20
2022-10-24T13:22:01.848Z,2.87
2022-10-24T13:23:35.801Z,2.17
2022-10-24T13:25:34.528Z,1.83
2022-10-24T13:27:28.778Z,3.80
2022-10-24T13:29:01.554Z,4.20
2022-10-24T13:30:34.678Z,3.10
2022-10-24T13:32:32.777Z,2.80
2022-10-24T13:34:18.897Z,3.83
2022-10-24T13:35:54.075Z,3.77
2022-10-24T13:37:30.418Z,7.33
2022-10-24T13:39:05.801Z,4.27
2022-10-24T13:40:40.176Z,2.53
2022-10-24T13:42:26.048Z,2.27
2022-10-24T13:44:03.908Z,3.53
2022-10-24T13:45:45.269Z,2.50
2022-10-24T13:47:22.097Z,2.07
2022-10-24T13:48:57.579Z,4.10
2022-10-24T13:50:31.637Z,3.73
2022-10-24T13:52:15.971Z,3.83
2022-10-24T13:53:52.016Z,2.60
2022-10-24T13:55:29.252Z,3.57
2022-10-24T13:57:02.416Z,3.37
2022-10-24T13:58:44.074Z,3.57
2022-10-24T14:00:21.580Z,3.57
2022-10-24T14:01:54.604Z,3.10
2022-10-24T14:03:30.801Z,5.60
2022-10-24T14:05:05.301Z,4.57
2022-10-24T14:06:38.114Z,2.70
2022-10-24T14:08:23.018Z,3.47
2022-10-24T14:10:00.822Z,2.77
2022-10-24T14:11:33.798Z,4.63
2022-10-24T14:13:06.765Z,4.50
2022-10-24T14:14:41.012Z,2.77
2022-10-24T14:16:14.482Z,3.73
2022-10-24T14:17:56.040Z,2.87
2022-10-24T14:19:32.534Z,3.60
2022-10-24T14:21:06.720Z,3.37
2022-10-24T14:22:41.499Z,3.37
2022-10-24T14:24:18.393Z,2.10
2022-10-24T14:25:55.274Z,3.83
2022-10-24T14:27:28.176Z,5.40
2022-10-24T14:29:01.052Z,3.43
2022-10-24T14:30:34.963Z,3.27
2022-10-24T14:32:14.905Z,3.10
2022-10-24T14:33:50.512Z,2.63
2022-10-24T14:35:24.044Z,3.87
2022-10-24T14:37:01.981Z,3.50
2022-10-24T14:38:35.842Z,2.97
2022-10-24T14:40:16.794Z,3.17
2022-10-24T14:41:49.649Z,2.83
2022-10-24T14:43:25.894Z,4.20
2022-10-24T14:44:59.859Z,1.93
2022-10-24T14:46:35.947Z,3.03
2022-10-24T14:48:23.637Z,2.53
2022-10-24T14:49:57.044Z,2.93
2022-10-24T14:51:38.641Z,2.70
2022-10-24T14:53:25.027Z,3.53
2022-10-24T14:55:02.912Z,4.40
2022-10-24T14:56:40.417Z,4.03
2022-10-24T14:58:23.400Z,4.70
2022-10-24T14:59:57.680Z,4.00
2022-10-24T15:01:30.737Z,2.67
2022-10-24T15:03:03.702Z,3.87
2022-10-24T15:04:40.177Z,6.00
2022-10-24T15:06:23.230Z,2.60
2022-10-24T15:08:28.228Z,3.10
2022-10-24T15:09:55.631Z,3.80
2022-10-24T15:11:30.634Z,4.37
2022-10-24T15:13:11.774Z,4.43
2022-10-24T15:14:48.955Z,3.53
2022-10-24T15:16:28.217Z,4.27
2022-10-24T15:18:09.065Z,5.33
2022-10-24T15:19:41.835Z,5.97
2022-10-24T15:21:18.546Z,5.53
2022-10-24T15:22:55.277Z,3.37
2022-10-24T15:24:28.210Z,4.80
2022-10-24T15:26:03.972Z,4.77
2022-10-24T15:27:40.593Z,5.67
2022-10-24T15:29:22.453Z,2.77
2022-10-24T15:30:55.702Z,6.67
2022-10-24T15:32:28.420Z,5.47
2022-10-24T15:34:01.178Z,3.10
2022-10-24T15:35:36.957Z,3.67
2022-10-24T15:37:18.569Z,4.47
2022-10-24T15:38:55.731Z,4.53
2022-10-24T15:40:30.613Z,3.43
2022-10-24T15:43:41.025Z,4.07
2022-10-24T15:45:16.866Z,4.30
2022-10-24T15:46:50.110Z,3.40
2022-10-24T15:48:22.809Z,6.20
2022-10-24T15:49:55.524Z,5.40
2022-10-24T15:51:28.253Z,4.77
2022-10-24T15:53:04.363Z,5.40
2022-10-24T15:54:37.076Z,4.10
2022-10-24T15:56:11.614Z,3.17
2022-10-24T15:57:44.454Z,2.87
2022-10-24T15:59:18.411Z,5.40
2022-10-24T16:00:52.569Z,4.27
2022-10-24T16:02:26.122Z,3.67
2022-10-24T16:03:59.788Z,3.87
2022-10-24T16:05:37.608Z,4.80
2022-10-24T16:07:11.257Z,4.80
2022-10-24T16:08:43.974Z,3.40
2022-10-24T16:10:19.655Z,4.03
2022-10-24T16:11:52.397Z,4.60
2022-10-24T16:13:25.180Z,4.53
2022-10-24T16:14:57.887Z,4.67
2022-10-24T16:16:31.942Z,3.30
2022-10-24T16:18:05.319Z,3.17
2022-10-24T16:19:38.083Z,5.53
2022-10-24T16:21:16.926Z,4.93
2022-10-24T16:22:49.997Z,2.13
2022-10-24T16:24:22.720Z,4.30
2022-10-24T16:25:55.420Z,5.20
2022-10-24T16:27:27.178Z,4.93
2022-10-24T16:28:59.899Z,2.40
2022-10-24T16:30:34.447Z,6.60
2022-10-24T16:32:08.608Z,3.40
2022-10-24T16:33:41.365Z,3.50
2022-10-24T16:35:19.473Z,4.03
2022-10-24T16:36:54.225Z,5.80
2022-10-24T16:38:27.082Z,4.90
2022-10-24T16:39:59.974Z,4.83
2022-10-24T16:41:32.828Z,5.93
2022-10-24T16:43:06.685Z,5.33
2022-10-24T16:44:39.400Z,3.47
2022-10-24T16:46:15.837Z,5.13
2022-10-24T16:47:50.544Z,5.93
2022-10-24T16:49:23.531Z,4.53
2022-10-24T16:50:56.434Z,5.90
2022-10-24T16:52:29.385Z,4.40
2022-10-24T16:54:03.208Z,5.33
2022-10-24T16:55:35.980Z,4.37
2022-10-24T16:57:08.698Z,5.60
2022-10-24T16:58:41.650Z,4.77
2022-10-24T17:00:16.861Z,5.20
2022-10-24T17:01:49.760Z,7.50
2022-10-24T17:03:23.906Z,4.30
2022-10-24T17:04:56.644Z,2.60
2022-10-24T17:06:29.826Z,3.73
2022-10-24T17:08:02.592Z,6.50
2022-10-24T17:09:35.333Z,5.23
2022-10-24T17:11:25.723Z,5.07
2022-10-24T17:13:01.873Z,2.80
2022-10-24T17:14:36.298Z,4.83
2022-10-24T17:16:10.555Z,3.73
2022-10-24T17:17:43.441Z,6.00
2022-10-24T17:19:18.145Z,4.40
2022-10-24T17:20:51.184Z,5.77
2022-10-24T17:22:24.226Z,6.17
2022-10-24T17:23:57.276Z,3.57
2022-10-24T17:25:30.346Z,5.80
2022-10-24T17:27:03.269Z,4.80
2022-10-24T17:28:36.167Z,3.50
2022-10-24T17:30:12.883Z,3.50
2022-10-24T17:31:45.813Z,3.63
2022-10-24T17:33:18.804Z,6.10
2022-10-24T17:34:55.200Z,4.03
2022-10-24T17:36:31.126Z,5.47
2022-10-24T17:38:11.494Z,5.10
2022-10-24T17:39:50.342Z,4.23
2022-10-24T17:41:26.277Z,6.40
2022-10-24T17:42:59.381Z,4.53
2022-10-24T17:44:32.467Z,4.50
2022-10-24T17:46:05.555Z,5.27
2022-10-24T17:47:38.455Z,6.00
2022-10-24T17:49:16.381Z,6.50
2022-10-24T17:50:56.490Z,5.07
2022-10-24T17:52:29.243Z,4.10
2022-10-24T17:54:01.948Z,6.20
2022-10-24T17:55:45.728Z,4.37
2022-10-24T17:57:19.798Z,4.93
2022-10-24T17:58:52.637Z,4.60
2022-10-24T18:00:25.377Z,3.53
2022-10-24T18:01:58.204Z,6.80
2022-10-24T18:03:31.402Z,4.03
2022-10-24T18:05:04.252Z,4.40
2022-10-24T18:06:40.788Z,4.97
2022-10-24T18:08:16.276Z,4.70
2022-10-24T18:09:48.972Z,7.60
2022-10-24T18:11:21.893Z,4.60
2022-10-24T18:12:54.647Z,6.47
2022-10-24T18:14:28.354Z,3.97
2022-10-24T18:16:07.543Z,6.13
2022-10-24T18:17:40.409Z,5.50
2022-10-24T18:19:13.163Z,6.10
2022-10-24T18:20:45.901Z,6.50
2022-10-24T18:22:19.961Z,4.43
2022-10-24T18:23:53.406Z,6.33
2022-10-24T18:25:26.133Z,6.10
2022-10-24T18:26:58.838Z,8.73
2022-10-24T18:28:31.551Z,5.57
2022-10-24T18:30:06.069Z,4.43
2022-10-24T18:31:38.828Z,3.80
2022-10-24T18:33:11.517Z,4.30
2022-10-24T18:34:44.255Z,3.77
2022-10-24T18:36:19.659Z,8.03
2022-10-24T18:37:53.711Z,3.97
2022-10-24T18:39:29.227Z,5.53
2022-10-24T18:41:03.988Z,4.10
2022-10-24T18:42:43.770Z,3.63
2022-10-24T18:44:26.379Z,5.33
2022-10-24T18:46:00.037Z,5.70
2022-10-24T18:47:33.341Z,4.30
2022-10-24T18:49:06.557Z,4.03
2022-10-24T18:50:39.482Z,7.43
2022-10-24T18:52:17.629Z,3.70
2022-10-24T18:53:53.722Z,4.60
2022-10-24T18:55:28.823Z,5.93
2022-10-24T18:57:01.832Z,10.27
2022-10-24T18:58:34.726Z,4.47
2022-10-24T19:00:08.703Z,7.27
2022-10-24T19:01:48.537Z,4.43
2022-10-24T19:03:29.290Z,7.50
2022-10-24T19:05:14.884Z,3.63
2022-10-24T19:06:48.928Z,3.53
2022-10-24T19:08:24.648Z,4.13
2022-10-24T19:09:58.969Z,7.93
2022-10-24T19:11:31.906Z,5.97
2022-10-24T19:13:04.839Z,4.17
2022-10-24T19:14:37.962Z,5.53
2022-10-24T19:16:16.341Z,6.47
2022-10-24T19:17:50.873Z,5.30
2022-10-24T19:19:26.894Z,6.67
2022-10-24T19:21:00.163Z,3.83
2022-10-24T19:22:32.886Z,5.93
2022-10-24T19:24:06.195Z,6.33
2022-10-24T19:25:40.721Z,3.00
2022-10-24T19:27:13.424Z,4.83
2022-10-24T19:28:46.181Z,3.80
2022-10-24T19:30:18.999Z,6.03
2022-10-24T19:31:51.692Z,7.10
2022-10-24T19:33:27.764Z,6.73
2022-10-24T19:35:00.521Z,4.60
2022-10-24T19:36:34.191Z,6.13
2022-10-24T19:38:07.137Z,8.63
2022-10-24T19:39:40.416Z,5.73
2022-10-24T19:41:14.485Z,9.43
2022-10-24T19:42:47.368Z,3.57
2022-10-24T19:44:20.753Z,7.27
2022-10-24T19:46:07.549Z,9.03
2022-10-24T19:47:48.016Z,5.30
2022-10-24T19:49:20.981Z,6.83
2022-10-24T19:50:53.693Z,5.27
2022-10-24T19:52:26.437Z,6.27
2022-10-24T19:53:59.156Z,4.33
2022-10-24T19:55:31.885Z,4.97
2022-10-24T19:57:06.033Z,5.17
2022-10-24T19:58:39.009Z,6.87
2022-10-24T20:00:12.954Z,5.90
2022-10-24T20:01:45.847Z,7.50
2022-10-24T20:03:18.823Z,4.87
2022-10-24T20:04:51.549Z,6.37
2022-10-24T20:06:25.857Z,2.40
2022-10-24T20:07:59.177Z,4.70
2022-10-24T20:09:31.938Z,4.37
2022-10-24T20:11:06.108Z,8.00
2022-10-24T20:12:40.188Z,4.87
2022-10-24T20:14:12.918Z,4.80
2022-10-24T20:15:45.628Z,4.07
2022-10-24T20:17:18.373Z,4.43
2022-10-24T20:18:51.105Z,4.80
2022-10-24T20:20:24.964Z,3.33
2022-10-24T20:22:00.289Z,4.50
2022-10-24T20:23:35.829Z,5.80
2022-10-24T20:25:09.094Z,5.57
2022-10-24T20:26:42.028Z,3.10
2022-10-24T20:28:16.205Z,8.13
2022-10-24T20:29:48.929Z,8.37
2022-10-24T20:31:23.445Z,4.53
2022-10-24T20:32:56.149Z,5.90
2022-10-24T20:34:28.893Z,7.10
2022-10-24T20:36:02.579Z,4.37
2022-10-24T20:37:35.285Z,4.40
2022-10-24T20:39:09.333Z,4.63
2022-10-24T20:40:42.050Z,4.50
2022-10-24T20:42:15.884Z,4.27
2022-10-24T20:43:51.011Z,4.13
2022-10-24T20:45:23.763Z,3.97
2022-10-24T20:46:58.885Z,5.77
2022-10-24T20:48:31.711Z,4.40
2022-10-24T20:50:04.914Z,2.17
2022-10-24T20:51:37.653Z,4.50
2022-10-24T20:53:10.366Z,3.70
2022-10-24T20:54:43.112Z,3.43
2022-10-24T20:56:18.125Z,3.93
2022-10-24T20:57:52.193Z,4.07
2022-10-24T20:59:26.254Z,5.03
2022-10-24T21:00:59.010Z,4.33
2022-10-24T21:02:31.912Z,4.17
2022-10-24T21:04:04.729Z,4.83
2022-10-24T21:05:36.487Z,5.87
2022-10-24T21:07:09.305Z,4.03
2022-10-24T21:08:42.069Z,5.37
2022-10-24T21:10:14.952Z,4.20
2022-10-24T21:11:48.673Z,5.07